Weather at Saipan International Airport

Public forecast

Using degrees Celsius for public forecast. Weather courtesy of forecast.io.

Current aviation weather report (METAR) for Saipan International Airport

2024/05/26 12:54 (retrieved 11 minutes ago)

PGSN 261254Z 09007KT 10SM CLR 28/22 A2994 RMK AO2 SLP157 T02780217

Aviation forecast (TAF) for Saipan International Airport

2024/05/26 12:30 (retrieved 35 minutes ago)

TAF PGSN 261124Z 2612/2712 09007KT P6SM VCSH FEW025